createdAt,value
2019-02-28T00:02:22.379Z,31.700001
2019-02-28T00:07:42.828Z,33.200001
2019-02-28T00:13:05.543Z,34.5
2019-02-28T00:18:28.254Z,32
2019-02-28T00:23:56.306Z,33.299999
2019-02-28T00:29:14.504Z,34.599998
2019-02-28T00:34:39.154Z,41.400002
2019-02-28T00:40:00.144Z,41.900002
2019-02-28T00:45:22.840Z,40.400002
2019-02-28T00:50:45.688Z,43.5
2019-02-28T00:56:08.344Z,47.599998
2019-02-28T01:01:31.117Z,45.700001
2019-02-28T01:06:53.785Z,48
2019-02-28T01:12:19.138Z,49.5
2019-02-28T01:17:40.045Z,51.900002
2019-02-28T01:23:02.835Z,44.099998
2019-02-28T01:28:26.887Z,50.700001
2019-02-28T01:33:48.064Z,58
2019-02-28T01:39:10.885Z,56.299999
2019-02-28T01:44:35.783Z,61.200001
2019-02-28T01:49:57.685Z,61.599998
2019-02-28T01:55:18.811Z,63.400002
2019-02-28T02:00:41.497Z,63.299999
2019-02-28T02:06:04.219Z,59.799999
2019-02-28T02:11:27.512Z,66.5
2019-02-28T02:17:05.060Z,72.800003
2019-02-28T02:22:30.523Z,83.699997
2019-02-28T02:27:54.031Z,78.900002
2019-02-28T02:33:16.063Z,87
2019-02-28T02:38:41.360Z,77.800003
2019-02-28T02:44:02.343Z,88.300003
2019-02-28T02:49:25.080Z,86.400002
2019-02-28T02:54:52.036Z,79.400002
2019-02-28T03:00:13.656Z,84.699997
2019-02-28T03:05:36.564Z,87.900002
2019-02-28T03:10:58.019Z,97.400002
2019-02-28T03:16:20.706Z,97.099998
2019-02-28T03:21:47.729Z,109.9
2019-02-28T03:27:07.209Z,91.599998
2019-02-28T03:32:38.961Z,101.19999
2019-02-28T03:37:53.734Z,95.900002
2019-02-28T03:43:16.420Z,80.199997
2019-02-28T03:48:39.135Z,84.400002
2019-02-28T03:54:01.885Z,100.5
2019-02-28T03:59:25.176Z,86.5
2019-02-28T04:04:49.903Z,93.5
2019-02-28T04:10:10.714Z,126.09999
2019-02-28T04:15:34.357Z,96.099998
2019-02-28T04:20:57.028Z,102.69999
2019-02-28T04:26:20.810Z,121.4
2019-02-28T04:31:43.718Z,102.5
2019-02-28T04:37:08.513Z,101.19999
2019-02-28T04:42:31.743Z,111.4
2019-02-28T04:47:55.551Z,115
2019-02-28T04:53:19.150Z,93.5
2019-02-28T04:58:41.126Z,111.8
2019-02-28T05:04:03.877Z,114.4
2019-02-28T05:09:26.640Z,125.5
2019-02-28T05:14:49.962Z,107.8
2019-02-28T05:20:12.764Z,144.39999
2019-02-28T05:25:35.416Z,114.5
2019-02-28T05:31:00.501Z,108
2019-02-28T05:36:24.201Z,111.8
2019-02-28T05:41:49.335Z,117.09999
2019-02-28T05:47:10.787Z,132.19999
2019-02-28T05:52:34.403Z,119.59999
2019-02-28T05:57:57.147Z,141.89999
2019-02-28T06:03:20.416Z,134.39999
2019-02-28T06:08:43.144Z,155.5
2019-02-28T06:14:05.901Z,172.3
2019-02-28T06:19:28.949Z,181.6
2019-02-28T06:24:51.936Z,169.69999
2019-02-28T06:30:14.529Z,209.19999
2019-02-28T06:35:37.205Z,177.6
2019-02-28T06:41:00.847Z,193.39999
2019-02-28T06:46:24.701Z,222.8
2019-02-28T06:51:48.316Z,221.5
2019-02-28T06:57:11.116Z,195.39999
2019-02-28T07:02:33.776Z,186.1
2019-02-28T07:07:59.820Z,220.89999
2019-02-28T07:13:22.626Z,245.69999
2019-02-28T07:18:45.336Z,189.69999
2019-02-28T07:24:09.015Z,212.89999
2019-02-28T07:29:32.144Z,209.19999
2019-02-28T07:34:54.956Z,196.5
2019-02-28T07:40:18.118Z,224.19999
2019-02-28T07:45:40.786Z,201.69999
2019-02-28T07:51:03.390Z,239
2019-02-28T07:56:26.275Z,185.69999
2019-02-28T08:01:50.814Z,193.6
2019-02-28T08:07:14.690Z,162.39999
2019-02-28T08:12:35.806Z,145.1
2019-02-28T08:17:58.522Z,130.3
2019-02-28T08:23:21.191Z,118.4
2019-02-28T08:28:43.887Z,103.8
2019-02-28T08:34:06.546Z,98.199997
2019-02-28T08:39:29.246Z,90.099998
2019-02-28T08:44:57.704Z,90.400002
2019-02-28T08:50:18.869Z,86.800003
2019-02-28T08:55:40.552Z,79.699997
2019-02-28T09:01:05.248Z,80.599998
2019-02-28T09:06:27.612Z,80.699997
2019-02-28T09:11:49.606Z,73.199997
2019-02-28T09:17:15.477Z,75.900002
2019-02-28T09:22:37.000Z,78.300003
2019-02-28T09:27:59.767Z,76.199997
2019-02-28T09:33:24.032Z,80.400002
2019-02-28T09:38:46.435Z,83.699997
2019-02-28T09:44:10.069Z,86.300003
2019-02-28T09:49:32.735Z,87.400002
2019-02-28T09:54:56.256Z,83
2019-02-28T10:00:19.503Z,84.599998
2019-02-28T10:05:43.273Z,86.400002
2019-02-28T10:11:05.144Z,85.400002
2019-02-28T10:16:27.772Z,86.099998
2019-02-28T10:21:51.977Z,89.300003
2019-02-28T10:27:13.235Z,87.400002
2019-02-28T10:32:36.935Z,87.099998
2019-02-28T10:38:00.611Z,89
2019-02-28T10:43:23.260Z,86.099998
2019-02-28T10:48:50.606Z,89.699997
2019-02-28T10:54:11.204Z,87.300003
2019-02-28T10:59:33.241Z,89.699997
2019-02-28T11:04:55.943Z,90.400002
2019-02-28T11:10:18.532Z,90.300003
2019-02-28T11:15:41.234Z,86.900002
2019-02-28T11:21:08.287Z,89.099998
2019-02-28T11:26:31.003Z,87.199997
2019-02-28T11:31:54.094Z,86.699997
2019-02-28T11:37:20.032Z,89.300003
2019-02-28T11:42:42.756Z,92.300003
2019-02-28T11:48:05.528Z,85.400002
2019-02-28T11:53:28.255Z,87.5
2019-02-28T11:58:51.507Z,85.900002
2019-02-28T12:04:13.677Z,84.699997
2019-02-28T12:09:36.326Z,89.699997
2019-02-28T12:15:02.544Z,87.400002
2019-02-28T12:20:26.378Z,88.099998
2019-02-28T12:25:46.579Z,88.900002
2019-02-28T12:31:09.207Z,94.199997
2019-02-28T12:36:31.861Z,100.09999
2019-02-28T12:41:56.457Z,93.199997
2019-02-28T12:47:18.091Z,93.5
2019-02-28T12:52:40.801Z,92.699997
2019-02-28T12:58:03.445Z,95.5
2019-02-28T13:03:26.114Z,93.199997
2019-02-28T13:08:48.759Z,93.699997
2019-02-28T13:14:11.424Z,97.5
2019-02-28T13:19:34.089Z,94.599998
2019-02-28T13:24:56.729Z,93.800003
2019-02-28T13:30:22.754Z,87.800003
2019-02-28T13:35:47.201Z,83.300003
2019-02-28T13:41:08.214Z,78.300003
2019-02-28T13:46:33.697Z,79.300003
2019-02-28T13:51:54.439Z,76.199997
2019-02-28T13:57:17.030Z,78.300003
2019-02-28T14:02:39.614Z,72.400002
2019-02-28T14:08:02.213Z,72.900002
2019-02-28T14:13:25.810Z,73.400002
2019-02-28T14:18:49.420Z,74.699997
2019-02-28T14:24:12.087Z,73.400002
2019-02-28T14:29:34.685Z,72.699997
2019-02-28T14:34:59.918Z,76.5
2019-02-28T14:40:21.011Z,87.599998
2019-02-28T14:45:44.004Z,80.699997
2019-02-28T14:51:06.453Z,91.699997
2019-02-28T14:56:29.086Z,89.400002
2019-02-28T15:01:52.987Z,90.099998
2019-02-28T15:07:14.993Z,90
2019-02-28T15:12:37.747Z,88
2019-02-28T15:18:00.377Z,92.900002
2019-02-28T15:23:23.038Z,90.400002
2019-02-28T15:28:48.534Z,97.699997
2019-02-28T15:34:08.945Z,93.400002
2019-02-28T15:39:32.379Z,90.699997
2019-02-28T15:44:55.136Z,95.599998
2019-02-28T15:50:18.787Z,94.599998
2019-02-28T15:55:41.525Z,91.599998
2019-02-28T16:01:04.231Z,97.5
2019-02-28T16:06:26.901Z,98.800003
2019-02-28T16:11:49.606Z,97.699997
2019-02-28T16:17:12.258Z,100.3
2019-02-28T16:22:35.484Z,98.800003
2019-02-28T16:27:58.115Z,94.300003
2019-02-28T16:33:24.403Z,96.300003
2019-02-28T16:38:45.039Z,90.5
2019-02-28T16:44:07.044Z,92.099998
2019-02-28T16:49:29.746Z,95.300003
2019-02-28T16:54:53.341Z,89.599998
2019-02-28T17:00:16.005Z,92.5
2019-02-28T17:05:38.618Z,89.300003
2019-02-28T17:11:02.506Z,60
2019-02-28T17:16:25.216Z,53.299999
2019-02-28T17:21:48.556Z,50.299999
2019-02-28T17:27:11.899Z,51.900002
2019-02-28T17:32:34.550Z,50.900002
2019-02-28T17:37:59.809Z,52.200001
2019-02-28T17:43:23.953Z,50.099998
2019-02-28T17:48:45.292Z,45.700001
2019-02-28T17:54:08.416Z,43.099998
2019-02-28T17:59:31.079Z,43.799999
2019-02-28T18:04:56.007Z,43.200001
2019-02-28T18:10:17.355Z,39.700001
2019-02-28T18:15:42.060Z,39.700001
2019-02-28T18:21:05.734Z,46.5
2019-02-28T18:26:38.507Z,40.400002
2019-02-28T18:31:53.821Z,40.200001
2019-02-28T18:37:17.312Z,39.900002
2019-02-28T18:42:41.405Z,41.299999
2019-02-28T18:48:03.994Z,37.900002
2019-02-28T18:53:26.712Z,38.099998
2019-02-28T18:58:49.453Z,36.400002
2019-02-28T19:04:12.222Z,36.099998
2019-02-28T19:09:34.920Z,37.700001
2019-02-28T19:14:57.644Z,38.099998
2019-02-28T19:20:20.238Z,43.5
2019-02-28T19:25:42.894Z,43.900002
2019-02-28T19:31:05.839Z,38.799999
2019-02-28T19:36:28.750Z,45
2019-02-28T19:41:51.543Z,52.400002
2019-02-28T19:47:14.235Z,68.300003
2019-02-28T19:52:36.978Z,86.300003
2019-02-28T19:57:59.691Z,75.199997
2019-02-28T20:03:22.437Z,87.099998
2019-02-28T20:08:45.142Z,84
2019-02-28T20:14:07.866Z,84.800003
2019-02-28T20:19:30.604Z,87.300003
2019-02-28T20:24:53.422Z,80.300003
2019-02-28T20:30:16.106Z,80.599998
2019-02-28T20:35:38.877Z,79.800003
2019-02-28T20:41:01.624Z,75
2019-02-28T20:46:24.349Z,68.300003
2019-02-28T20:51:54.739Z,67.199997
2019-02-28T20:57:11.265Z,62.400002
2019-02-28T21:02:34.036Z,57.200001
2019-02-28T21:07:56.906Z,56.799999
2019-02-28T21:13:21.960Z,56
2019-02-28T21:18:46.927Z,48.799999
2019-02-28T21:24:09.716Z,51.400002
2019-02-28T21:29:32.524Z,46.900002
2019-02-28T21:34:55.275Z,46.099998
2019-02-28T21:40:18.027Z,46.5
2019-02-28T21:45:40.868Z,45.700001
2019-02-28T21:51:03.606Z,43.5
2019-02-28T21:56:26.285Z,51.200001
2019-02-28T22:01:49.020Z,48.200001
2019-02-28T22:07:11.807Z,52.700001
2019-02-28T22:12:34.527Z,56.400002
2019-02-28T22:17:57.131Z,56.700001
2019-02-28T22:23:20.417Z,54.799999
2019-02-28T22:28:43.064Z,66.400002
2019-02-28T22:34:05.690Z,68.300003
2019-02-28T22:39:28.440Z,59.900002
2019-02-28T22:44:51.057Z,61.900002
2019-02-28T22:50:13.777Z,59.099998
2019-02-28T22:55:36.478Z,54.599998
2019-02-28T23:01:00.195Z,57
2019-02-28T23:06:23.622Z,48.5
2019-02-28T23:11:46.878Z,40.200001
2019-02-28T23:17:09.608Z,35.099998
2019-02-28T23:22:32.272Z,32.599998
2019-02-28T23:27:54.943Z,30.4
2019-02-28T23:33:17.614Z,27.700001
2019-02-28T23:38:40.225Z,26.4
2019-02-28T23:44:02.884Z,22.1
2019-02-28T23:49:25.584Z,21.299999
2019-02-28T23:54:48.207Z,28.200001
